sensor_id;sensor_type;location;lat;lon;timestamp;pressure;altitude;pressure_sealevel;temperature;humidity
10921;BME280;5513;50.580;8.818;2022-07-29T00:02:19;98931.19;;;21.54;56.48
10921;BME280;5513;50.580;8.818;2022-07-29T00:04:49;98934.41;;;21.41;56.88
10921;BME280;5513;50.580;8.818;2022-07-29T00:07:17;98921.63;;;21.43;56.95
10921;BME280;5513;50.580;8.818;2022-07-29T00:09:45;98913.38;;;21.45;56.66
10921;BME280;5513;50.580;8.818;2022-07-29T00:12:18;98916.91;;;21.45;56.32
10921;BME280;5513;50.580;8.818;2022-07-29T00:14:54;98911.50;;;21.53;56.29
10921;BME280;5513;50.580;8.818;2022-07-29T00:17:24;98919.09;;;21.41;56.01
10921;BME280;5513;50.580;8.818;2022-07-29T00:19:53;98909.34;;;21.24;56.60
10921;BME280;5513;50.580;8.818;2022-07-29T00:22:22;98911.69;;;21.43;56.79
10921;BME280;5513;50.580;8.818;2022-07-29T00:24:51;98910.50;;;21.46;56.21
10921;BME280;5513;50.580;8.818;2022-07-29T00:27:19;98904.50;;;21.28;55.83
10921;BME280;5513;50.580;8.818;2022-07-29T00:29:48;98906.16;;;21.29;56.17
10921;BME280;5513;50.580;8.818;2022-07-29T00:32:16;98899.28;;;21.26;56.68
10921;BME280;5513;50.580;8.818;2022-07-29T00:34:44;98899.91;;;21.20;56.83
10921;BME280;5513;50.580;8.818;2022-07-29T00:37:31;98888.97;;;21.22;56.65
10921;BME280;5513;50.580;8.818;2022-07-29T00:40:00;98894.03;;;21.25;56.87
10921;BME280;5513;50.580;8.818;2022-07-29T00:42:28;98893.72;;;21.28;56.57
10921;BME280;5513;50.580;8.818;2022-07-29T00:44:56;98882.56;;;21.31;56.12
10921;BME280;5513;50.580;8.818;2022-07-29T00:47:25;98890.19;;;21.27;56.76
10921;BME280;5513;50.580;8.818;2022-07-29T00:49:53;98888.78;;;21.39;56.45
10921;BME280;5513;50.580;8.818;2022-07-29T00:52:22;98890.63;;;21.39;56.62
10921;BME280;5513;50.580;8.818;2022-07-29T00:54:52;98898.78;;;21.14;56.89
10921;BME280;5513;50.580;8.818;2022-07-29T00:57:20;98901.13;;;21.34;56.23
10921;BME280;5513;50.580;8.818;2022-07-29T00:59:48;98906.34;;;21.27;56.87
10921;BME280;5513;50.580;8.818;2022-07-29T01:02:17;98914.59;;;21.18;57.27
10921;BME280;5513;50.580;8.818;2022-07-29T01:04:46;98929.56;;;21.28;58.11
10921;BME280;5513;50.580;8.818;2022-07-29T01:07:14;98936.31;;;21.24;58.00
10921;BME280;5513;50.580;8.818;2022-07-29T01:09:45;98941.00;;;21.30;57.14
10921;BME280;5513;50.580;8.818;2022-07-29T01:12:17;98943.88;;;21.21;56.70
10921;BME280;5513;50.580;8.818;2022-07-29T01:14:47;98947.63;;;20.95;58.67
10921;BME280;5513;50.580;8.818;2022-07-29T01:17:20;98971.97;;;20.45;62.03
10921;BME280;5513;50.580;8.818;2022-07-29T01:19:54;98974.75;;;20.19;64.59
10921;BME280;5513;50.580;8.818;2022-07-29T01:22:29;98979.78;;;20.14;66.69
10921;BME280;5513;50.580;8.818;2022-07-29T01:25:10;98970.00;;;20.05;67.76
10921;BME280;5513;50.580;8.818;2022-07-29T01:27:54;98973.72;;;20.12;68.14
10921;BME280;5513;50.580;8.818;2022-07-29T01:30:30;98968.88;;;20.32;68.28
10921;BME280;5513;50.580;8.818;2022-07-29T01:33:04;98961.84;;;20.30;68.90
10921;BME280;5513;50.580;8.818;2022-07-29T01:35:36;98961.69;;;20.40;69.27
10921;BME280;5513;50.580;8.818;2022-07-29T01:38:09;98964.72;;;20.45;70.02
10921;BME280;5513;50.580;8.818;2022-07-29T01:40:43;98959.00;;;20.40;70.89
10921;BME280;5513;50.580;8.818;2022-07-29T01:43:15;98949.72;;;20.18;71.39
10921;BME280;5513;50.580;8.818;2022-07-29T01:45:48;98945.66;;;20.22;72.32
10921;BME280;5513;50.580;8.818;2022-07-29T01:48:22;98945.88;;;20.37;72.36
10921;BME280;5513;50.580;8.818;2022-07-29T01:50:55;98938.53;;;20.47;71.05
10921;BME280;5513;50.580;8.818;2022-07-29T01:53:31;98937.84;;;20.53;70.53
10921;BME280;5513;50.580;8.818;2022-07-29T01:56:04;98937.00;;;20.53;71.39
10921;BME280;5513;50.580;8.818;2022-07-29T01:58:35;98931.78;;;20.51;71.98
10921;BME280;5513;50.580;8.818;2022-07-29T02:01:06;98931.78;;;20.51;71.46
10921;BME280;5513;50.580;8.818;2022-07-29T02:03:37;98932.16;;;20.56;70.05
10921;BME280;5513;50.580;8.818;2022-07-29T02:06:07;98932.28;;;20.63;70.71
10921;BME280;5513;50.580;8.818;2022-07-29T02:08:38;98920.03;;;20.69;71.06
10921;BME280;5513;50.580;8.818;2022-07-29T02:11:08;98921.03;;;20.60;74.33
10921;BME280;5513;50.580;8.818;2022-07-29T02:13:36;98923.06;;;20.57;79.63
10921;BME280;5513;50.580;8.818;2022-07-29T02:16:08;98912.78;;;20.53;82.41
10921;BME280;5513;50.580;8.818;2022-07-29T02:18:39;98917.31;;;20.61;84.77
10921;BME280;5513;50.580;8.818;2022-07-29T02:21:09;98907.94;;;20.56;93.06
10921;BME280;5513;50.580;8.818;2022-07-29T02:23:42;98897.47;;;20.45;96.92
10921;BME280;5513;50.580;8.818;2022-07-29T02:26:17;98902.13;;;20.35;100.00
10921;BME280;5513;50.580;8.818;2022-07-29T02:28:48;98886.34;;;20.32;100.00
10921;BME280;5513;50.580;8.818;2022-07-29T02:31:23;98867.00;;;20.20;100.00
10921;BME280;5513;50.580;8.818;2022-07-29T02:33:54;98865.69;;;19.66;100.00
10921;BME280;5513;50.580;8.818;2022-07-29T02:36:23;98855.84;;;19.40;100.00
10921;BME280;5513;50.580;8.818;2022-07-29T02:38:52;98859.03;;;19.10;100.00
10921;BME280;5513;50.580;8.818;2022-07-29T02:41:28;98858.53;;;18.80;100.00
10921;BME280;5513;50.580;8.818;2022-07-29T02:44:02;98853.97;;;18.73;100.00
10921;BME280;5513;50.580;8.818;2022-07-29T02:46:35;98862.69;;;19.01;100.00
10921;BME280;5513;50.580;8.818;2022-07-29T02:49:09;98869.75;;;19.02;100.00
10921;BME280;5513;50.580;8.818;2022-07-29T02:51:43;98869.59;;;19.03;100.00
10921;BME280;5513;50.580;8.818;2022-07-29T02:54:22;98862.66;;;18.93;100.00
10921;BME280;5513;50.580;8.818;2022-07-29T02:56:53;98838.50;;;18.93;100.00
10921;BME280;5513;50.580;8.818;2022-07-29T02:59:25;98845.88;;;18.47;100.00
10921;BME280;5513;50.580;8.818;2022-07-29T03:01:57;98847.63;;;18.38;100.00
10921;BME280;5513;50.580;8.818;2022-07-29T03:04:27;98840.50;;;18.47;100.00
10921;BME280;5513;50.580;8.818;2022-07-29T03:06:58;98832.97;;;18.24;100.00
10921;BME280;5513;50.580;8.818;2022-07-29T03:09:28;98842.56;;;18.53;100.00
10921;BME280;5513;50.580;8.818;2022-07-29T03:11:57;98830.53;;;18.57;100.00
10921;BME280;5513;50.580;8.818;2022-07-29T03:14:26;98822.66;;;18.38;100.00
10921;BME280;5513;50.580;8.818;2022-07-29T03:16:58;98829.06;;;18.63;100.00
10921;BME280;5513;50.580;8.818;2022-07-29T03:19:27;98832.91;;;18.42;100.00
10921;BME280;5513;50.580;8.818;2022-07-29T03:21:56;98837.78;;;18.21;100.00
10921;BME280;5513;50.580;8.818;2022-07-29T03:24:27;98833.41;;;18.38;100.00
10921;BME280;5513;50.580;8.818;2022-07-29T03:26:56;98834.66;;;18.25;100.00
10921;BME280;5513;50.580;8.818;2022-07-29T03:29:25;98844.53;;;18.25;100.00
10921;BME280;5513;50.580;8.818;2022-07-29T03:32:02;98842.22;;;18.12;100.00
10921;BME280;5513;50.580;8.818;2022-07-29T03:34:35;98843.53;;;18.08;100.00
10921;BME280;5513;50.580;8.818;2022-07-29T03:37:04;98840.84;;;18.08;100.00
10921;BME280;5513;50.580;8.818;2022-07-29T03:39:38;98838.41;;;18.15;100.00
10921;BME280;5513;50.580;8.818;2022-07-29T03:42:10;98835.25;;;18.19;100.00
10921;BME280;5513;50.580;8.818;2022-07-29T03:44:42;98834.31;;;18.28;100.00
10921;BME280;5513;50.580;8.818;2022-07-29T03:47:14;98839.16;;;18.25;100.00
10921;BME280;5513;50.580;8.818;2022-07-29T03:49:48;98850.81;;;18.34;100.00
10921;BME280;5513;50.580;8.818;2022-07-29T03:52:18;98852.94;;;18.30;100.00
10921;BME280;5513;50.580;8.818;2022-07-29T03:54:47;98848.88;;;18.26;100.00
10921;BME280;5513;50.580;8.818;2022-07-29T03:57:15;98856.31;;;18.14;100.00
10921;BME280;5513;50.580;8.818;2022-07-29T03:59:45;98855.94;;;18.09;100.00
10921;BME280;5513;50.580;8.818;2022-07-29T04:02:16;98860.63;;;18.07;100.00
10921;BME280;5513;50.580;8.818;2022-07-29T04:04:50;98866.25;;;18.22;100.00
10921;BME280;5513;50.580;8.818;2022-07-29T04:07:19;98868.19;;;18.29;100.00
10921;BME280;5513;50.580;8.818;2022-07-29T04:09:47;98869.78;;;18.40;100.00
10921;BME280;5513;50.580;8.818;2022-07-29T04:12:19;98869.69;;;18.50;100.00
10921;BME280;5513;50.580;8.818;2022-07-29T04:14:47;98878.66;;;18.41;100.00
10921;BME280;5513;50.580;8.818;2022-07-29T04:17:18;98880.06;;;18.27;100.00
10921;BME280;5513;50.580;8.818;2022-07-29T04:19:46;98904.09;;;18.01;100.00
10921;BME280;5513;50.580;8.818;2022-07-29T04:22:15;98915.75;;;17.17;100.00
10921;BME280;5513;50.580;8.818;2022-07-29T04:24:43;98920.63;;;16.85;100.00
10921;BME280;5513;50.580;8.818;2022-07-29T04:27:11;98926.13;;;16.93;100.00
10921;BME280;5513;50.580;8.818;2022-07-29T04:29:39;98918.00;;;17.22;100.00
10921;BME280;5513;50.580;8.818;2022-07-29T04:32:25;98911.88;;;17.39;100.00
10921;BME280;5513;50.580;8.818;2022-07-29T04:34:53;98915.94;;;17.43;100.00
10921;BME280;5513;50.580;8.818;2022-07-29T04:37:22;98919.84;;;17.59;100.00
10921;BME280;5513;50.580;8.818;2022-07-29T04:39:50;98931.22;;;17.70;100.00
10921;BME280;5513;50.580;8.818;2022-07-29T04:42:18;98924.88;;;17.71;100.00
10921;BME280;5513;50.580;8.818;2022-07-29T04:44:53;98917.53;;;17.64;100.00
10921;BME280;5513;50.580;8.818;2022-07-29T04:47:21;98910.25;;;17.56;100.00
10921;BME280;5513;50.580;8.818;2022-07-29T04:49:51;98904.28;;;17.35;100.00
10921;BME280;5513;50.580;8.818;2022-07-29T04:52:19;98895.75;;;17.22;100.00
10921;BME280;5513;50.580;8.818;2022-07-29T04:54:47;98894.72;;;17.32;100.00
10921;BME280;5513;50.580;8.818;2022-07-29T04:57:16;98894.63;;;17.14;100.00
10921;BME280;5513;50.580;8.818;2022-07-29T04:59:44;98888.31;;;17.06;100.00
10921;BME280;5513;50.580;8.818;2022-07-29T05:02:12;98894.88;;;17.31;100.00
10921;BME280;5513;50.580;8.818;2022-07-29T05:04:41;98886.69;;;16.95;100.00
10921;BME280;5513;50.580;8.818;2022-07-29T05:07:10;98885.94;;;17.03;100.00
10921;BME280;5513;50.580;8.818;2022-07-29T05:09:39;98886.09;;;17.01;100.00
10921;BME280;5513;50.580;8.818;2022-07-29T05:12:07;98887.38;;;16.97;100.00
10921;BME280;5513;50.580;8.818;2022-07-29T05:14:36;98883.72;;;16.88;100.00
10921;BME280;5513;50.580;8.818;2022-07-29T05:17:04;98891.22;;;16.66;100.00
10921;BME280;5513;50.580;8.818;2022-07-29T05:19:32;98897.56;;;16.74;100.00
10921;BME280;5513;50.580;8.818;2022-07-29T05:22:05;98885.88;;;16.75;100.00
10921;BME280;5513;50.580;8.818;2022-07-29T05:24:35;98872.09;;;16.60;100.00
10921;BME280;5513;50.580;8.818;2022-07-29T05:27:03;98865.31;;;16.66;100.00
10921;BME280;5513;50.580;8.818;2022-07-29T05:29:31;98869.69;;;16.48;100.00
10921;BME280;5513;50.580;8.818;2022-07-29T05:32:11;98846.88;;;16.63;100.00
10921;BME280;5513;50.580;8.818;2022-07-29T05:34:39;98845.38;;;16.70;100.00
10921;BME280;5513;50.580;8.818;2022-07-29T05:37:18;98850.81;;;16.78;100.00
10921;BME280;5513;50.580;8.818;2022-07-29T05:39:47;98854.44;;;16.87;100.00
10921;BME280;5513;50.580;8.818;2022-07-29T05:42:23;98845.41;;;16.98;100.00
10921;BME280;5513;50.580;8.818;2022-07-29T05:44:52;98855.34;;;17.15;100.00
10921;BME280;5513;50.580;8.818;2022-07-29T05:47:20;98865.00;;;17.26;100.00
10921;BME280;5513;50.580;8.818;2022-07-29T05:49:49;98893.19;;;17.30;100.00
10921;BME280;5513;50.580;8.818;2022-07-29T05:52:18;98902.34;;;17.27;100.00
10921;BME280;5513;50.580;8.818;2022-07-29T05:54:48;98902.78;;;16.47;100.00
10921;BME280;5513;50.580;8.818;2022-07-29T05:57:18;98895.88;;;16.54;100.00
10921;BME280;5513;50.580;8.818;2022-07-29T05:59:48;98898.13;;;16.78;100.00
10921;BME280;5513;50.580;8.818;2022-07-29T06:02:17;98897.81;;;17.00;100.00
10921;BME280;5513;50.580;8.818;2022-07-29T06:04:45;98896.47;;;17.14;100.00
10921;BME280;5513;50.580;8.818;2022-07-29T06:07:14;98897.47;;;17.13;100.00
10921;BME280;5513;50.580;8.818;2022-07-29T06:09:42;98903.69;;;17.41;100.00
10921;BME280;5513;50.580;8.818;2022-07-29T06:12:12;98898.25;;;17.60;100.00
10921;BME280;5513;50.580;8.818;2022-07-29T06:14:41;98897.13;;;17.90;100.00
10921;BME280;5513;50.580;8.818;2022-07-29T06:17:09;98899.03;;;17.98;100.00
10921;BME280;5513;50.580;8.818;2022-07-29T06:19:38;98893.81;;;18.14;100.00
10921;BME280;5513;50.580;8.818;2022-07-29T06:22:06;98901.88;;;17.96;100.00
10921;BME280;5513;50.580;8.818;2022-07-29T06:24:36;98907.72;;;18.10;100.00
10921;BME280;5513;50.580;8.818;2022-07-29T06:27:08;98893.81;;;18.14;100.00
10921;BME280;5513;50.580;8.818;2022-07-29T06:29:38;98900.75;;;18.35;100.00
10921;BME280;5513;50.580;8.818;2022-07-29T06:32:07;98898.19;;;18.33;100.00
10921;BME280;5513;50.580;8.818;2022-07-29T06:34:36;98911.41;;;18.44;100.00
10921;BME280;5513;50.580;8.818;2022-07-29T06:37:06;98904.19;;;18.63;100.00
10921;BME280;5513;50.580;8.818;2022-07-29T06:39:41;98915.97;;;18.52;100.00
10921;BME280;5513;50.580;8.818;2022-07-29T06:42:09;98911.16;;;18.73;100.00
10921;BME280;5513;50.580;8.818;2022-07-29T06:44:39;98920.00;;;18.66;100.00
10921;BME280;5513;50.580;8.818;2022-07-29T06:47:10;98919.28;;;18.64;100.00
10921;BME280;5513;50.580;8.818;2022-07-29T06:49:39;98914.34;;;18.95;100.00
10921;BME280;5513;50.580;8.818;2022-07-29T06:52:07;98914.28;;;18.86;100.00
10921;BME280;5513;50.580;8.818;2022-07-29T06:54:35;98920.78;;;19.10;100.00
10921;BME280;5513;50.580;8.818;2022-07-29T06:57:05;98918.88;;;18.94;100.00
10921;BME280;5513;50.580;8.818;2022-07-29T06:59:33;98911.31;;;18.98;100.00
10921;BME280;5513;50.580;8.818;2022-07-29T07:02:03;98923.09;;;18.61;100.00
10921;BME280;5513;50.580;8.818;2022-07-29T07:04:32;98920.59;;;19.03;100.00
10921;BME280;5513;50.580;8.818;2022-07-29T07:07:00;98915.88;;;18.79;100.00
10921;BME280;5513;50.580;8.818;2022-07-29T07:09:29;98921.41;;;18.78;100.00
10921;BME280;5513;50.580;8.818;2022-07-29T07:12:06;98917.38;;;19.00;100.00
10921;BME280;5513;50.580;8.818;2022-07-29T07:14:34;98922.59;;;18.75;100.00
10921;BME280;5513;50.580;8.818;2022-07-29T07:17:04;98925.88;;;19.13;100.00
10921;BME280;5513;50.580;8.818;2022-07-29T07:19:33;98924.53;;;18.91;100.00
10921;BME280;5513;50.580;8.818;2022-07-29T07:22:02;98919.22;;;19.25;100.00
10921;BME280;5513;50.580;8.818;2022-07-29T07:24:31;98921.50;;;19.46;100.00
10921;BME280;5513;50.580;8.818;2022-07-29T07:26:59;98925.19;;;19.45;100.00
10921;BME280;5513;50.580;8.818;2022-07-29T07:29:28;98922.03;;;19.15;100.00
10921;BME280;5513;50.580;8.818;2022-07-29T07:31:57;98916.41;;;19.35;100.00
10921;BME280;5513;50.580;8.818;2022-07-29T07:34:28;98923.59;;;19.00;100.00
10921;BME280;5513;50.580;8.818;2022-07-29T07:36:57;98919.53;;;18.96;100.00
10921;BME280;5513;50.580;8.818;2022-07-29T07:39:25;98923.31;;;18.85;100.00
10921;BME280;5513;50.580;8.818;2022-07-29T07:41:54;98931.91;;;19.15;100.00
10921;BME280;5513;50.580;8.818;2022-07-29T07:44:22;98934.13;;;19.20;100.00
10921;BME280;5513;50.580;8.818;2022-07-29T07:46:50;98931.78;;;19.51;100.00
10921;BME280;5513;50.580;8.818;2022-07-29T07:49:20;98938.00;;;19.85;100.00
10921;BME280;5513;50.580;8.818;2022-07-29T07:51:50;98941.72;;;19.92;100.00
10921;BME280;5513;50.580;8.818;2022-07-29T07:54:19;98941.16;;;19.47;100.00
10921;BME280;5513;50.580;8.818;2022-07-29T07:56:47;98938.03;;;19.93;100.00
10921;BME280;5513;50.580;8.818;2022-07-29T07:59:19;98936.50;;;19.91;100.00
10921;BME280;5513;50.580;8.818;2022-07-29T08:01:47;98936.47;;;19.83;100.00
10921;BME280;5513;50.580;8.818;2022-07-29T08:04:22;98933.84;;;19.99;100.00
10921;BME280;5513;50.580;8.818;2022-07-29T08:06:55;98932.50;;;20.03;100.00
10921;BME280;5513;50.580;8.818;2022-07-29T08:09:25;98929.25;;;19.83;100.00
10921;BME280;5513;50.580;8.818;2022-07-29T08:11:57;98933.00;;;20.07;100.00
10921;BME280;5513;50.580;8.818;2022-07-29T08:14:25;98939.13;;;20.25;100.00
10921;BME280;5513;50.580;8.818;2022-07-29T08:16:54;98937.28;;;20.34;100.00
10921;BME280;5513;50.580;8.818;2022-07-29T08:19:22;98930.94;;;20.43;100.00
10921;BME280;5513;50.580;8.818;2022-07-29T08:21:50;98932.31;;;20.47;100.00
10921;BME280;5513;50.580;8.818;2022-07-29T08:24:22;98930.63;;;20.62;100.00
10921;BME280;5513;50.580;8.818;2022-07-29T08:27:07;98931.94;;;20.74;100.00
10921;BME280;5513;50.580;8.818;2022-07-29T08:29:56;98934.81;;;20.48;100.00
10921;BME280;5513;50.580;8.818;2022-07-29T08:32:24;98938.03;;;20.76;100.00
10921;BME280;5513;50.580;8.818;2022-07-29T08:35:15;98942.19;;;21.11;100.00
10921;BME280;5513;50.580;8.818;2022-07-29T08:37:43;98941.34;;;21.11;100.00
10921;BME280;5513;50.580;8.818;2022-07-29T08:40:13;98935.84;;;20.80;100.00
10921;BME280;5513;50.580;8.818;2022-07-29T08:42:43;98933.44;;;21.18;100.00
10921;BME280;5513;50.580;8.818;2022-07-29T08:45:11;98943.69;;;21.47;100.00
10921;BME280;5513;50.580;8.818;2022-07-29T08:47:39;98948.22;;;21.46;100.00
10921;BME280;5513;50.580;8.818;2022-07-29T08:50:08;98939.75;;;21.57;100.00
10921;BME280;5513;50.580;8.818;2022-07-29T08:52:38;98941.69;;;21.80;100.00
10921;BME280;5513;50.580;8.818;2022-07-29T08:55:08;98938.69;;;22.14;100.00
10921;BME280;5513;50.580;8.818;2022-07-29T08:57:39;98947.41;;;22.24;100.00
10921;BME280;5513;50.580;8.818;2022-07-29T09:00:18;98939.56;;;22.37;100.00
10921;BME280;5513;50.580;8.818;2022-07-29T09:02:47;98940.00;;;22.49;100.00
10921;BME280;5513;50.580;8.818;2022-07-29T09:05:19;98943.66;;;22.56;100.00
10921;BME280;5513;50.580;8.818;2022-07-29T09:07:47;98942.22;;;22.68;100.00
10921;BME280;5513;50.580;8.818;2022-07-29T09:10:16;98935.19;;;22.82;100.00
10921;BME280;5513;50.580;8.818;2022-07-29T09:12:46;98940.09;;;23.01;100.00
10921;BME280;5513;50.580;8.818;2022-07-29T09:15:15;98937.00;;;22.90;100.00
10921;BME280;5513;50.580;8.818;2022-07-29T09:17:45;98936.72;;;22.76;100.00
10921;BME280;5513;50.580;8.818;2022-07-29T09:20:15;98929.13;;;23.32;100.00
10921;BME280;5513;50.580;8.818;2022-07-29T09:22:44;98922.16;;;23.23;100.00
10921;BME280;5513;50.580;8.818;2022-07-29T09:25:32;98926.38;;;23.55;100.00
10921;BME280;5513;50.580;8.818;2022-07-29T09:28:10;98924.25;;;23.65;100.00
10921;BME280;5513;50.580;8.818;2022-07-29T09:30:49;98916.78;;;24.18;100.00
10921;BME280;5513;50.580;8.818;2022-07-29T09:33:18;98919.56;;;24.25;100.00
10921;BME280;5513;50.580;8.818;2022-07-29T09:35:58;98914.63;;;24.50;100.00
10921;BME280;5513;50.580;8.818;2022-07-29T09:38:27;98907.47;;;24.64;100.00
10921;BME280;5513;50.580;8.818;2022-07-29T09:40:57;98902.63;;;24.80;100.00
10921;BME280;5513;50.580;8.818;2022-07-29T09:43:33;98910.78;;;25.08;100.00
10921;BME280;5513;50.580;8.818;2022-07-29T09:46:11;98900.88;;;25.22;100.00
10921;BME280;5513;50.580;8.818;2022-07-29T09:48:39;98900.41;;;24.91;100.00
10921;BME280;5513;50.580;8.818;2022-07-29T09:51:17;98895.31;;;25.02;100.00
10921;BME280;5513;50.580;8.818;2022-07-29T09:53:49;98896.88;;;25.18;100.00
10921;BME280;5513;50.580;8.818;2022-07-29T09:56:19;98898.25;;;25.35;100.00
10921;BME280;5513;50.580;8.818;2022-07-29T09:59:05;98897.63;;;25.33;100.00
10921;BME280;5513;50.580;8.818;2022-07-29T10:01:33;98895.88;;;25.19;100.00
10921;BME280;5513;50.580;8.818;2022-07-29T10:04:04;98892.25;;;25.47;100.00
10921;BME280;5513;50.580;8.818;2022-07-29T10:06:34;98895.47;;;25.63;100.00
10921;BME280;5513;50.580;8.818;2022-07-29T10:09:09;98894.19;;;25.94;99.81
10921;BME280;5513;50.580;8.818;2022-07-29T10:11:38;98890.13;;;25.77;97.81
10921;BME280;5513;50.580;8.818;2022-07-29T10:14:16;98886.44;;;25.91;98.30
10921;BME280;5513;50.580;8.818;2022-07-29T10:16:45;98882.78;;;26.32;95.29
10921;BME280;5513;50.580;8.818;2022-07-29T10:19:14;98890.19;;;26.77;91.22
10921;BME280;5513;50.580;8.818;2022-07-29T10:21:43;98887.69;;;26.76;91.54
10921;BME280;5513;50.580;8.818;2022-07-29T10:24:12;98882.03;;;27.17;85.59
10921;BME280;5513;50.580;8.818;2022-07-29T10:26:41;98879.03;;;27.52;84.03
10921;BME280;5513;50.580;8.818;2022-07-29T10:29:09;98889.03;;;27.58;82.84
10921;BME280;5513;50.580;8.818;2022-07-29T10:31:44;98887.66;;;27.35;84.21
10921;BME280;5513;50.580;8.818;2022-07-29T10:34:22;98890.50;;;27.74;81.69
10921;BME280;5513;50.580;8.818;2022-07-29T10:36:57;98884.88;;;27.55;81.26
10921;BME280;5513;50.580;8.818;2022-07-29T10:39:40;98886.75;;;27.68;81.28
10921;BME280;5513;50.580;8.818;2022-07-29T10:42:18;98887.72;;;28.25;78.53
10921;BME280;5513;50.580;8.818;2022-07-29T10:45:01;98876.44;;;27.83;80.46
10921;BME280;5513;50.580;8.818;2022-07-29T10:47:32;98878.09;;;28.29;75.92
10921;BME280;5513;50.580;8.818;2022-07-29T10:50:03;98873.59;;;28.10;73.12
10921;BME280;5513;50.580;8.818;2022-07-29T10:52:52;98877.44;;;28.27;75.76
10921;BME280;5513;50.580;8.818;2022-07-29T10:55:31;98874.69;;;28.65;72.75
10921;BME280;5513;50.580;8.818;2022-07-29T10:58:12;98874.06;;;28.38;69.98
10921;BME280;5513;50.580;8.818;2022-07-29T11:00:43;98865.41;;;28.48;67.60
10921;BME280;5513;50.580;8.818;2022-07-29T11:03:56;98872.75;;;29.22;66.43
10921;BME280;5513;50.580;8.818;2022-07-29T11:06:25;98875.13;;;29.37;66.49
10921;BME280;5513;50.580;8.818;2022-07-29T11:09:18;98861.41;;;29.00;65.81
10921;BME280;5513;50.580;8.818;2022-07-29T11:12:03;98862.47;;;29.61;65.67
10921;BME280;5513;50.580;8.818;2022-07-29T11:14:56;98861.28;;;28.95;65.61
10921;BME280;5513;50.580;8.818;2022-07-29T11:17:26;98860.22;;;28.96;65.50
10921;BME280;5513;50.580;8.818;2022-07-29T11:20:39;98856.13;;;29.49;61.32
10921;BME280;5513;50.580;8.818;2022-07-29T11:23:19;98847.38;;;29.58;60.26
10921;BME280;5513;50.580;8.818;2022-07-29T11:26:13;98854.38;;;29.54;61.24
10921;BME280;5513;50.580;8.818;2022-07-29T11:28:51;98855.09;;;29.43;59.74
10921;BME280;5513;50.580;8.818;2022-07-29T11:31:33;98857.78;;;29.50;62.34
10921;BME280;5513;50.580;8.818;2022-07-29T11:34:20;98857.50;;;29.33;59.84
10921;BME280;5513;50.580;8.818;2022-07-29T11:37:17;98850.63;;;27.92;66.95
10921;BME280;5513;50.580;8.818;2022-07-29T11:40:09;98850.28;;;28.77;67.37
10921;BME280;5513;50.580;8.818;2022-07-29T11:42:41;98852.56;;;29.23;64.45
10921;BME280;5513;50.580;8.818;2022-07-29T11:45:11;98856.25;;;29.72;65.69
10921;BME280;5513;50.580;8.818;2022-07-29T11:48:03;98856.22;;;30.09;59.89
10921;BME280;5513;50.580;8.818;2022-07-29T11:50:52;98857.03;;;29.91;58.94
10921;BME280;5513;50.580;8.818;2022-07-29T11:53:25;98845.78;;;29.51;58.79
10921;BME280;5513;50.580;8.818;2022-07-29T11:55:58;98845.66;;;30.12;59.82
10921;BME280;5513;50.580;8.818;2022-07-29T11:58:30;98840.78;;;29.48;60.88
10921;BME280;5513;50.580;8.818;2022-07-29T12:01:00;98844.28;;;29.55;59.38
10921;BME280;5513;50.580;8.818;2022-07-29T12:04:02;98840.00;;;30.26;57.16
10921;BME280;5513;50.580;8.818;2022-07-29T12:06:32;98842.19;;;29.87;56.86
10921;BME280;5513;50.580;8.818;2022-07-29T12:09:08;98834.09;;;29.80;58.68
10921;BME280;5513;50.580;8.818;2022-07-29T12:11:40;98831.88;;;30.19;60.00
10921;BME280;5513;50.580;8.818;2022-07-29T12:14:27;98820.78;;;30.44;60.17
10921;BME280;5513;50.580;8.818;2022-07-29T12:16:56;98829.72;;;30.51;56.89
10921;BME280;5513;50.580;8.818;2022-07-29T12:19:25;98828.34;;;30.72;56.39
10921;BME280;5513;50.580;8.818;2022-07-29T12:21:56;98813.72;;;31.13;53.88
10921;BME280;5513;50.580;8.818;2022-07-29T12:24:42;98814.53;;;31.14;55.59
10921;BME280;5513;50.580;8.818;2022-07-29T12:27:11;98810.66;;;31.21;53.44
10921;BME280;5513;50.580;8.818;2022-07-29T12:29:40;98806.34;;;31.25;54.29
10921;BME280;5513;50.580;8.818;2022-07-29T12:32:14;98810.91;;;31.60;53.42
10921;BME280;5513;50.580;8.818;2022-07-29T12:34:45;98810.50;;;32.08;49.56
10921;BME280;5513;50.580;8.818;2022-07-29T12:37:14;98800.09;;;31.94;49.85
10921;BME280;5513;50.580;8.818;2022-07-29T12:39:44;98808.72;;;31.10;53.43
10921;BME280;5513;50.580;8.818;2022-07-29T12:42:12;98808.75;;;31.22;52.15
10921;BME280;5513;50.580;8.818;2022-07-29T12:44:48;98800.63;;;31.79;49.53
10921;BME280;5513;50.580;8.818;2022-07-29T12:47:19;98787.81;;;31.96;48.25
10921;BME280;5513;50.580;8.818;2022-07-29T12:49:47;98796.88;;;31.97;49.78
10921;BME280;5513;50.580;8.818;2022-07-29T12:52:35;98791.31;;;32.08;48.60
10921;BME280;5513;50.580;8.818;2022-07-29T12:55:06;98792.16;;;30.58;52.62
10921;BME280;5513;50.580;8.818;2022-07-29T12:57:44;98789.25;;;30.71;53.38
10921;BME280;5513;50.580;8.818;2022-07-29T13:00:15;98775.31;;;31.60;53.39
10921;BME280;5513;50.580;8.818;2022-07-29T13:02:54;98777.13;;;31.83;51.60
10921;BME280;5513;50.580;8.818;2022-07-29T13:05:23;98771.88;;;32.10;51.55
10921;BME280;5513;50.580;8.818;2022-07-29T13:07:52;98771.69;;;32.45;48.91
10921;BME280;5513;50.580;8.818;2022-07-29T13:10:24;98762.75;;;32.21;49.80
10921;BME280;5513;50.580;8.818;2022-07-29T13:13:06;98767.75;;;31.79;49.86
10921;BME280;5513;50.580;8.818;2022-07-29T13:15:35;98762.25;;;31.50;49.80
10921;BME280;5513;50.580;8.818;2022-07-29T13:18:04;98752.66;;;31.76;50.91
10921;BME280;5513;50.580;8.818;2022-07-29T13:20:33;98751.03;;;31.52;51.28
10921;BME280;5513;50.580;8.818;2022-07-29T13:23:01;98767.06;;;31.20;51.65
10921;BME280;5513;50.580;8.818;2022-07-29T13:25:32;98754.94;;;32.13;51.23
10921;BME280;5513;50.580;8.818;2022-07-29T13:28:00;98753.75;;;32.54;49.46
10921;BME280;5513;50.580;8.818;2022-07-29T13:30:29;98752.97;;;32.75;47.93
10921;BME280;5513;50.580;8.818;2022-07-29T13:32:57;98756.06;;;32.62;47.58